Terminal Aerodrome Forecast
Issued by NWS Charleston, WV

Home | Current Version | Previous Version | Text Only | Print | Product List | Glossary On
Versions: 1 2 3 4 5 6 7 8 9 10 11 12 13 14 15 16 17 18 19 20 21 22 23
000
FTUS41 KRLX 011700
TAFPKB
TAF
KPKB 011731Z 0118/0218 VRB04KT P6SM SCT022 BKN035
     FM020400 00000KT 5SM BR FEW150
     FM020900 00000KT 2SM BR BKN003
     FM021300 00000KT 3SM BR FEW003
     FM021400 00000KT P6SM SCT250=

USA.gov is the U.S. government's official web portal to all federal, state and local government web resources and services.